Elk Horn, Idaho
Current Conditions -  °F | °C
As of 5:55 PM on Tuesday 21 Oct 2014 (Local Time) from KSUN Reporting Station
Few Clouds Few Clouds  
Wind Chill: 43°   Ceiling: Unl
Heat Index: 48°   Visibility: 10mi
Dew Point: 30°   Wind: 12mph
Humidity: 50%   Direction: 250°WSW
Pressure: 30.02"   Gusts: NA
Location:  43.6966°N, 114.35°W
Report Text: KSUN 212355Z 25010KT 10SM FEW030 09/M01 A3002
Loading
Personal Weather Stations






























Interactive Weather Map
Tropical Storm Tracking
New forecast layout! Learn more

10-Day Weather Forecast

Advertisements
Track Severe Weather on mobile